Time;durP1;ratioP1;P1;durP2;ratioP2;P2;SDS_P1;SDS_P2;PMS_P1;PMS_P2;Temp;Humidity;BMP_temperature;BMP_pressure;BME280_temperature;BME280_humidity;BME280_pressure;Samples;Min_cycle;Max_cycle;Signal;HPM_P1;HPM_P2
2022/05/24 00:02:14;;;;;;;11.55;6.40;;;;;;;;;;5039839;28;20554;-66
2022/05/24 00:04:39;;;;;;;7.80;6.53;;;;;;;;;;5027061;28;20170;-65
2022/05/24 00:07:04;;;;;;;12.02;6.75;;;;;;;;;;5028908;28;20182;-66
2022/05/24 00:09:30;;;;;;;10.38;7.03;;;;;;;;;;5042077;28;20223;-66
2022/05/24 00:11:55;;;;;;;12.68;7.82;;;;;;;;;;5033386;28;20229;-66
2022/05/24 00:15:19;;;;;;;9.60;8.57;;;;;;;;;;5042125;28;20189;-65
2022/05/24 00:17:06;;;;;;;11.25;8.65;;;;;;;;;;5038011;28;20232;-65
2022/05/24 00:19:32;;;;;;;15.07;9.35;;;;;;;;;;5040289;28;20216;-65
2022/05/24 00:21:58;;;;;;;11.65;8.73;;;;;;;;;;5036931;28;20667;-64
2022/05/24 00:24:23;;;;;;;11.75;9.55;;;;;;;;;;5030758;28;20268;-64
2022/05/24 00:26:48;;;;;;;13.35;9.48;;;;;;;;;;5043241;28;20184;-64
2022/05/24 00:29:14;;;;;;;12.75;10.25;;;;;;;;;;5040898;28;20206;-66
2022/05/24 00:31:39;;;;;;;15.02;10.50;;;;;;;;;;5024789;28;20354;-64
2022/05/24 00:34:04;;;;;;;17.50;12.63;;;;;;;;;;5043678;28;20243;-64
2022/05/24 00:36:30;;;;;;;20.60;12.80;;;;;;;;;;5043006;28;20193;-64
2022/05/24 00:38:55;;;;;;;18.00;13.90;;;;;;;;;;5036248;28;20184;-64
2022/05/24 00:41:29;;;;;;;16.77;12.90;;;;;;;;;;5051215;28;20692;-64
2022/05/24 00:44:02;;;;;;;21.52;14.00;;;;;;;;;;5033524;28;20650;-64
2022/05/24 00:46:53;;;;;;;20.05;13.73;;;;;;;;;;5036835;28;20634;-63
2022/05/24 00:49:31;;;;;;;24.50;16.23;;;;;;;;;;5041729;28;20220;-64
2022/05/24 00:52:14;;;;;;;23.80;15.48;;;;;;;;;;5042808;28;20208;-64
2022/05/24 00:54:44;;;;;;;20.73;13.82;;;;;;;;;;5034721;28;20185;-65
2022/05/24 00:57:29;;;;;;;24.55;16.27;;;;;;;;;;5033523;28;20191;-64
2022/05/24 01:00:07;;;;;;;24.13;16.75;;;;;;;;;;5036277;28;20178;-64
2022/05/24 01:02:36;;;;;;;23.65;16.00;;;;;;;;;;5031172;28;20269;-64
2022/05/24 01:05:05;;;;;;;21.98;16.60;;;;;;;;;;5034794;28;20182;-63
2022/05/24 01:07:30;;;;;;;21.65;16.35;;;;;;;;;;5032036;28;20244;-64
2022/05/24 01:10:08;;;;;;;24.83;17.35;;;;;;;;;;5041856;28;20241;-63
2022/05/24 01:12:42;;;;;;;28.85;18.85;;;;;;;;;;5038374;28;20716;-63
2022/05/24 01:15:10;;;;;;;24.48;17.27;;;;;;;;;;5041623;28;20275;-63
2022/05/24 01:17:37;;;;;;;24.05;17.55;;;;;;;;;;5039025;28;20649;-64
2022/05/24 01:20:03;;;;;;;26.90;18.50;;;;;;;;;;5032626;28;20174;-63
2022/05/24 01:22:42;;;;;;;24.67;18.20;;;;;;;;;;5040368;28;20177;-63
2022/05/24 01:25:44;;;;;;;21.55;16.08;;;;;;;;;;5030087;28;20360;-63
2022/05/24 01:28:24;;;;;;;25.88;18.50;;;;;;;;;;5033682;28;20190;-63
2022/05/24 01:30:49;;;;;;;26.55;18.92;;;;;;;;;;5040526;28;20254;-65
2022/05/24 01:36:10;;;;;;;29.60;20.48;;;;;;;;;;5042061;28;20239;-64
2022/05/24 01:38:40;;;;;;;27.45;20.40;;;;;;;;;;5042915;28;20173;-63
2022/05/24 01:41:06;;;;;;;33.45;22.10;;;;;;;;;;5042202;28;20185;-63
2022/05/24 01:43:32;;;;;;;30.85;19.88;;;;;;;;;;5039978;28;20256;-64
2022/05/24 01:46:04;;;;;;;32.70;21.63;;;;;;;;;;5039613;28;20623;-65
2022/05/24 01:48:39;;;;;;;30.73;21.73;;;;;;;;;;5031374;28;20280;-64
2022/05/24 01:51:07;;;;;;;33.00;22.17;;;;;;;;;;5035751;28;20236;-64
2022/05/24 01:53:42;;;;;;;27.23;20.48;;;;;;;;;;5040963;28;20719;-64
2022/05/24 01:56:11;;;;;;;31.08;20.85;;;;;;;;;;5040463;28;20205;-64
2022/05/24 01:58:38;;;;;;;31.48;20.58;;;;;;;;;;5037367;28;20503;-64
2022/05/24 02:01:09;;;;;;;31.75;21.92;;;;;;;;;;5039580;28;20182;-63
2022/05/24 02:03:34;;;;;;;30.85;21.92;;;;;;;;;;5042446;28;20563;-64
2022/05/24 02:05:59;;;;;;;31.35;22.02;;;;;;;;;;5032056;28;20316;-64
2022/05/24 02:08:25;;;;;;;31.10;22.55;;;;;;;;;;5031767;28;20771;-64
2022/05/24 02:10:55;;;;;;;31.42;22.58;;;;;;;;;;5041895;28;20427;-64
2022/05/24 02:13:42;;;;;;;29.13;20.73;;;;;;;;;;5040524;28;20193;-64
2022/05/24 02:16:12;;;;;;;30.83;22.52;;;;;;;;;;5028762;28;20257;-64
2022/05/24 02:18:40;;;;;;;26.95;19.02;;;;;;;;;;5038102;28;20189;-66
2022/05/24 02:21:06;;;;;;;29.48;19.58;;;;;;;;;;5035883;28;20235;-64
2022/05/24 02:23:40;;;;;;;31.75;21.85;;;;;;;;;;5038700;28;20772;-64
2022/05/24 02:26:08;;;;;;;34.30;23.33;;;;;;;;;;5033374;28;20212;-65
2022/05/24 02:28:34;;;;;;;33.38;21.83;;;;;;;;;;5034776;28;20252;-64
2022/05/24 02:31:03;;;;;;;30.67;22.45;;;;;;;;;;5042696;28;20201;-64
2022/05/24 02:33:30;;;;;;;32.20;23.02;;;;;;;;;;5028445;28;20186;-64
2022/05/24 02:35:56;;;;;;;31.30;21.65;;;;;;;;;;5036815;28;20186;-63
2022/05/24 02:38:22;;;;;;;31.65;22.00;;;;;;;;;;5033200;28;20216;-63
2022/05/24 02:43:32;;;;;;;33.90;23.17;;;;;;;;;;5031294;28;20251;-64
2022/05/24 02:45:57;;;;;;;37.72;24.45;;;;;;;;;;5028568;28;20213;-64
2022/05/24 02:48:22;;;;;;;36.90;24.58;;;;;;;;;;5031751;28;20267;-65
2022/05/24 02:50:48;;;;;;;38.72;25.17;;;;;;;;;;5035737;28;20186;-68
2022/05/24 02:53:14;;;;;;;35.85;23.83;;;;;;;;;;5041165;28;20736;-64
2022/05/24 02:55:39;;;;;;;39.33;24.63;;;;;;;;;;5028020;28;20188;-63
2022/05/24 02:58:05;;;;;;;34.53;23.73;;;;;;;;;;5027626;28;20174;-63
2022/05/24 03:00:31;;;;;;;38.08;24.55;;;;;;;;;;5035875;28;20203;-64
2022/05/24 03:02:57;;;;;;;38.92;25.80;;;;;;;;;;5031794;28;20709;-63
2022/05/24 03:05:24;;;;;;;42.15;25.95;;;;;;;;;;5039591;28;20208;-64
2022/05/24 03:10:34;;;;;;;37.92;25.95;;;;;;;;;;5045433;28;20200;-63
2022/05/24 03:15:45;;;;;;;36.83;24.73;;;;;;;;;;5046080;28;20200;-65
2022/05/24 03:18:13;;;;;;;45.85;28.73;;;;;;;;;;5032242;28;20173;-65
2022/05/24 03:20:39;;;;;;;42.65;28.63;;;;;;;;;;5038524;28;20177;-65
2022/05/24 03:23:05;;;;;;;41.42;27.17;;;;;;;;;;5042812;28;20992;-65
2022/05/24 03:25:32;;;;;;;43.47;29.10;;;;;;;;;;5036489;28;20285;-64
2022/05/24 03:27:59;;;;;;;45.38;29.42;;;;;;;;;;5041685;28;20232;-64
2022/05/24 03:30:25;;;;;;;50.35;29.92;;;;;;;;;;5029142;28;20186;-65
2022/05/24 03:32:51;;;;;;;46.15;28.95;;;;;;;;;;5034613;28;20653;-64
2022/05/24 03:35:17;;;;;;;42.58;27.98;;;;;;;;;;5031964;28;20181;-64
2022/05/24 03:37:42;;;;;;;49.15;29.45;;;;;;;;;;5030195;28;20265;-65
2022/05/24 03:40:09;;;;;;;42.92;28.27;;;;;;;;;;5035101;28;20260;-64
2022/05/24 03:42:36;;;;;;;44.63;28.50;;;;;;;;;;5039082;28;20246;-64
2022/05/24 03:45:04;;;;;;;41.45;27.98;;;;;;;;;;5027685;28;20190;-65
2022/05/24 03:47:29;;;;;;;43.08;26.95;;;;;;;;;;5038384;28;20636;-65
2022/05/24 03:49:54;;;;;;;42.55;27.60;;;;;;;;;;5037006;28;20263;-64
2022/05/24 03:52:20;;;;;;;43.33;27.35;;;;;;;;;;5035701;28;20185;-64
2022/05/24 03:54:46;;;;;;;44.17;27.33;;;;;;;;;;5031839;28;20240;-63
2022/05/24 03:59:54;;;;;;;38.53;25.65;;;;;;;;;;5039342;28;22012;-63
2022/05/24 04:02:20;;;;;;;44.67;27.40;;;;;;;;;;5035299;28;20201;-64
2022/05/24 04:04:45;;;;;;;40.55;26.27;;;;;;;;;;5044338;28;20273;-64
2022/05/24 04:07:10;;;;;;;42.78;25.67;;;;;;;;;;5039804;28;20182;-63
2022/05/24 04:09:36;;;;;;;37.22;26.38;;;;;;;;;;5033493;28;20653;-65
2022/05/24 04:12:02;;;;;;;34.38;24.25;;;;;;;;;;5036672;28;20217;-64
2022/05/24 04:14:29;;;;;;;35.45;24.35;;;;;;;;;;5038906;28;20188;-64
2022/05/24 04:16:55;;;;;;;34.97;22.95;;;;;;;;;;5040468;28;20716;-65
2022/05/24 04:19:21;;;;;;;35.05;23.23;;;;;;;;;;5041241;28;20181;-64
2022/05/24 04:21:46;;;;;;;35.17;23.13;;;;;;;;;;5039970;28;20203;-63
2022/05/24 04:24:11;;;;;;;35.60;23.48;;;;;;;;;;5040700;28;20185;-64
2022/05/24 04:26:37;;;;;;;35.92;22.95;;;;;;;;;;5039189;28;20195;-63
2022/05/24 04:29:02;;;;;;;34.05;23.08;;;;;;;;;;5037767;28;20201;-64
2022/05/24 04:31:28;;;;;;;31.60;20.90;;;;;;;;;;5034589;28;20239;-63
2022/05/24 04:33:53;;;;;;;31.50;21.30;;;;;;;;;;5037302;28;20269;-63
2022/05/24 04:36:18;;;;;;;27.48;18.80;;;;;;;;;;5032962;28;20182;-64
2022/05/24 04:38:44;;;;;;;28.80;20.02;;;;;;;;;;5039343;28;20177;-64
2022/05/24 04:43:53;;;;;;;26.00;17.55;;;;;;;;;;5038198;28;20246;-64
2022/05/24 04:46:18;;;;;;;27.92;17.40;;;;;;;;;;5035210;28;20554;-64
2022/05/24 04:48:44;;;;;;;25.73;17.05;;;;;;;;;;5036645;28;20210;-65
2022/05/24 04:51:09;;;;;;;25.60;18.13;;;;;;;;;;5032495;28;20268;-64
2022/05/24 04:53:34;;;;;;;24.33;17.10;;;;;;;;;;5034616;28;20182;-64
2022/05/24 04:55:59;;;;;;;21.27;16.00;;;;;;;;;;5040621;28;20315;-64
2022/05/24 04:58:25;;;;;;;22.15;15.52;;;;;;;;;;5047248;28;20201;-65
2022/05/24 05:00:50;;;;;;;23.63;14.85;;;;;;;;;;5036403;28;20181;-65
2022/05/24 05:03:17;;;;;;;24.77;14.13;;;;;;;;;;5043474;28;20173;-64
2022/05/24 05:05:44;;;;;;;25.40;13.95;;;;;;;;;;5040218;28;20182;-65
2022/05/24 05:08:09;;;;;;;19.88;12.55;;;;;;;;;;5042658;28;20204;-64
2022/05/24 05:10:35;;;;;;;16.00;11.40;;;;;;;;;;5048238;28;20724;-63
2022/05/24 05:13:04;;;;;;;19.67;11.15;;;;;;;;;;5036819;28;20524;-63
2022/05/24 05:15:34;;;;;;;19.65;11.57;;;;;;;;;;5035639;28;20655;-64
2022/05/24 05:18:08;;;;;;;15.20;11.52;;;;;;;;;;5028447;28;20170;-65
2022/05/24 05:20:39;;;;;;;16.08;11.10;;;;;;;;;;5034430;28;20225;-63
2022/05/24 05:23:05;;;;;;;20.38;11.02;;;;;;;;;;5041357;28;20178;-63
2022/05/24 05:25:31;;;;;;;19.90;11.23;;;;;;;;;;5038564;28;20189;-63
2022/05/24 05:27:56;;;;;;;16.25;11.70;;;;;;;;;;5039020;28;20189;-63
2022/05/24 05:33:05;;;;;;;18.17;10.95;;;;;;;;;;5038629;28;20176;-63
2022/05/24 05:35:30;;;;;;;17.02;11.43;;;;;;;;;;5038685;28;20276;-63
2022/05/24 05:37:56;;;;;;;16.98;11.15;;;;;;;;;;5037534;28;20576;-63
2022/05/24 05:40:21;;;;;;;19.13;11.27;;;;;;;;;;5040445;28;20202;-66
2022/05/24 05:42:47;;;;;;;18.98;11.30;;;;;;;;;;5035036;28;20693;-65
2022/05/24 05:45:14;;;;;;;16.92;10.82;;;;;;;;;;5033205;28;20633;-64
2022/05/24 05:47:39;;;;;;;13.15;9.55;;;;;;;;;;5035643;28;20558;-63
2022/05/24 05:50:05;;;;;;;16.52;9.98;;;;;;;;;;5041774;28;20186;-63
2022/05/24 05:52:31;;;;;;;14.88;9.15;;;;;;;;;;5043481;28;20239;-63
2022/05/24 05:54:56;;;;;;;12.90;9.07;;;;;;;;;;5037795;28;20641;-64
2022/05/24 05:57:21;;;;;;;12.98;9.68;;;;;;;;;;5039895;28;20583;-63
2022/05/24 05:59:47;;;;;;;15.65;9.52;;;;;;;;;;5036406;28;20456;-63
2022/05/24 06:02:12;;;;;;;14.30;9.13;;;;;;;;;;5036690;28;20186;-62
2022/05/24 06:04:37;;;;;;;19.00;9.38;;;;;;;;;;5030343;28;20186;-64
2022/05/24 06:07:04;;;;;;;14.88;8.93;;;;;;;;;;5041583;28;20181;-63
2022/05/24 06:09:29;;;;;;;17.23;8.55;;;;;;;;;;5045157;28;20197;-65
2022/05/24 06:11:55;;;;;;;13.23;8.55;;;;;;;;;;5033863;28;20240;-63
2022/05/24 06:14:20;;;;;;;15.98;9.00;;;;;;;;;;5036765;28;20189;-63
2022/05/24 06:16:45;;;;;;;16.85;9.38;;;;;;;;;;5037779;28;20190;-63
2022/05/24 06:19:11;;;;;;;15.38;9.75;;;;;;;;;;5034783;28;20185;-63
2022/05/24 06:21:36;;;;;;;14.35;9.32;;;;;;;;;;5034520;28;20229;-65
2022/05/24 06:24:04;;;;;;;21.45;9.45;;;;;;;;;;5034731;28;20213;-64
2022/05/24 06:26:30;;;;;;;14.90;8.55;;;;;;;;;;5035196;28;20223;-63
2022/05/24 06:28:57;;;;;;;14.18;9.07;;;;;;;;;;5033296;28;20351;-65
2022/05/24 06:31:23;;;;;;;11.05;8.98;;;;;;;;;;5033166;28;20526;-63
2022/05/24 06:33:48;;;;;;;18.48;9.18;;;;;;;;;;5034971;28;20239;-64
2022/05/24 06:36:14;;;;;;;16.85;8.95;;;;;;;;;;5041964;28;20189;-63
2022/05/24 06:38:39;;;;;;;18.42;9.60;;;;;;;;;;5031244;28;20630;-63
2022/05/24 06:41:05;;;;;;;15.52;9.48;;;;;;;;;;5042724;28;20195;-63
2022/05/24 06:43:30;;;;;;;14.80;8.50;;;;;;;;;;5043523;28;20641;-65
2022/05/24 06:45:56;;;;;;;17.25;9.65;;;;;;;;;;5037822;28;20185;-66
2022/05/24 06:48:21;;;;;;;16.02;9.35;;;;;;;;;;5028916;28;20209;-65
2022/05/24 06:50:46;;;;;;;14.57;9.80;;;;;;;;;;5036494;28;20201;-64
2022/05/24 06:53:12;;;;;;;14.25;10.07;;;;;;;;;;5035166;28;20174;-64
2022/05/24 06:55:37;;;;;;;19.17;9.95;;;;;;;;;;5044073;28;20213;-63
2022/05/24 06:58:03;;;;;;;14.63;10.35;;;;;;;;;;5039409;28;20215;-64
2022/05/24 07:03:16;;;;;;;17.42;9.68;;;;;;;;;;5036929;28;20238;-64
2022/05/24 07:05:43;;;;;;;15.30;10.32;;;;;;;;;;5039614;28;20186;-64
2022/05/24 07:08:09;;;;;;;17.58;9.98;;;;;;;;;;5044518;28;20205;-64
2022/05/24 07:10:37;;;;;;;17.85;10.32;;;;;;;;;;5038363;28;20568;-63
2022/05/24 07:13:09;;;;;;;19.05;9.60;;;;;;;;;;5015081;28;20266;-63
2022/05/24 07:15:35;;;;;;;17.63;10.65;;;;;;;;;;5020035;28;20273;-64
2022/05/24 07:18:01;;;;;;;14.32;10.15;;;;;;;;;;5020225;28;20181;-63
2022/05/24 07:20:27;;;;;;;13.68;10.23;;;;;;;;;;5018097;28;20206;-63
2022/05/24 07:22:54;;;;;;;18.30;11.55;;;;;;;;;;5014830;28;20186;-64
2022/05/24 07:25:20;;;;;;;23.20;11.98;;;;;;;;;;5018879;28;20232;-65
2022/05/24 07:27:46;;;;;;;15.85;11.05;;;;;;;;;;5015851;28;20197;-63
2022/05/24 07:30:11;;;;;;;15.15;11.10;;;;;;;;;;5018616;28;20275;-65
2022/05/24 07:32:37;;;;;;;15.80;10.70;;;;;;;;;;5012806;28;20190;-64
2022/05/24 07:35:03;;;;;;;13.55;11.10;;;;;;;;;;5012830;28;20187;-64
2022/05/24 07:37:28;;;;;;;15.18;11.30;;;;;;;;;;5011833;28;20186;-63
2022/05/24 07:48:06;;;;;;;14.57;11.15;;;;;;;;;;5019689;28;20212;-64
2022/05/24 07:50:31;;;;;;;14.82;10.40;;;;;;;;;;5016059;28;20353;-63
2022/05/24 07:52:57;;;;;;;16.08;10.48;;;;;;;;;;5014323;28;20251;-63
2022/05/24 07:55:24;;;;;;;13.57;9.80;;;;;;;;;;5016866;28;20654;-64
2022/05/24 07:57:49;;;;;;;14.88;10.15;;;;;;;;;;5018790;28;20249;-67
2022/05/24 08:00:15;;;;;;;13.15;10.55;;;;;;;;;;5015493;28;20650;-65
2022/05/24 08:02:40;;;;;;;14.75;9.90;;;;;;;;;;5020198;28;20198;-66
2022/05/24 08:05:07;;;;;;;21.75;11.27;;;;;;;;;;5013709;28;20198;-66
2022/05/24 08:07:32;;;;;;;14.15;10.63;;;;;;;;;;5017820;28;20225;-65
2022/05/24 08:09:57;;;;;;;14.35;10.73;;;;;;;;;;5026348;28;20199;-63
2022/05/24 08:12:23;;;;;;;16.02;11.48;;;;;;;;;;5032709;28;20633;-64
2022/05/24 08:14:49;;;;;;;15.68;11.38;;;;;;;;;;5038693;28;20533;-65
2022/05/24 08:17:14;;;;;;;14.77;10.88;;;;;;;;;;5042626;28;20181;-64
2022/05/24 08:19:39;;;;;;;12.23;10.30;;;;;;;;;;5037444;28;20173;-64
2022/05/24 08:22:06;;;;;;;13.70;10.50;;;;;;;;;;5039071;28;20276;-64
2022/05/24 08:24:32;;;;;;;17.58;10.98;;;;;;;;;;5038933;28;20205;-66
2022/05/24 08:26:57;;;;;;;17.92;9.88;;;;;;;;;;5043830;28;20185;-64
2022/05/24 08:29:23;;;;;;;11.48;9.00;;;;;;;;;;5040761;28;20193;-64
2022/05/24 08:31:49;;;;;;;13.85;8.98;;;;;;;;;;5033995;28;20314;-66
2022/05/24 08:34:16;;;;;;;12.18;8.68;;;;;;;;;;5041323;28;20213;-65
2022/05/24 08:36:42;;;;;;;13.07;8.40;;;;;;;;;;5041956;28;20190;-63
2022/05/24 08:39:07;;;;;;;11.00;7.00;;;;;;;;;;5040575;28;20213;-65
2022/05/24 08:42:13;;;;;;;8.80;7.47;;;;;;;;;;5041978;28;20645;-64
2022/05/24 08:50:37;;;;;;;13.45;7.00;;;;;;;;;;5044053;28;20200;-66
2022/05/24 08:53:11;;;;;;;10.50;6.90;;;;;;;;;;5037121;28;20611;-66
2022/05/24 08:55:40;;;;;;;7.75;6.20;;;;;;;;;;5045440;28;20213;-65
2022/05/24 08:58:11;;;;;;;9.07;7.55;;;;;;;;;;5039744;28;20193;-65
2022/05/24 09:00:39;;;;;;;10.20;7.32;;;;;;;;;;5040735;28;20579;-65
2022/05/24 09:03:06;;;;;;;12.55;7.50;;;;;;;;;;5048302;28;20649;-64
2022/05/24 09:05:38;;;;;;;9.52;7.22;;;;;;;;;;5043782;28;20189;-64
2022/05/24 09:08:36;;;;;;;8.48;6.90;;;;;;;;;;5048402;28;20205;-64
2022/05/24 09:11:12;;;;;;;7.25;6.50;;;;;;;;;;5038120;28;20313;-65
2022/05/24 09:14:13;;;;;;;9.88;6.82;;;;;;;;;;5028957;28;20210;-64
2022/05/24 09:16:52;;;;;;;8.45;6.68;;;;;;;;;;5030247;28;20194;-66
2022/05/24 09:19:23;;;;;;;11.32;6.68;;;;;;;;;;5034054;28;20170;-63
2022/05/24 09:21:52;;;;;;;11.90;6.43;;;;;;;;;;5029605;28;20588;-65
2022/05/24 09:24:31;;;;;;;8.55;6.68;;;;;;;;;;5046775;28;20184;-65
2022/05/24 09:27:09;;;;;;;9.77;6.47;;;;;;;;;;5037888;28;20599;-64
2022/05/24 09:29:50;;;;;;;7.85;6.55;;;;;;;;;;5038865;28;20609;-64
2022/05/24 09:32:15;;;;;;;9.70;6.28;;;;;;;;;;5032427;28;20202;-66
2022/05/24 09:34:41;;;;;;;8.13;6.07;;;;;;;;;;5033338;28;20193;-66
2022/05/24 09:37:21;;;;;;;11.10;5.03;;;;;;;;;;5043513;28;20184;-67
2022/05/24 09:40:06;;;;;;;9.68;4.85;;;;;;;;;;5046599;28;20280;-66
2022/05/24 09:42:36;;;;;;;8.57;4.88;;;;;;;;;;5039850;28;20196;-66
2022/05/24 09:45:16;;;;;;;4.57;3.17;;;;;;;;;;5045987;28;20606;-65
2022/05/24 09:47:42;;;;;;;4.88;3.28;;;;;;;;;;5046728;28;20280;-67
2022/05/24 09:50:41;;;;;;;6.13;4.18;;;;;;;;;;5045298;28;20652;-67
2022/05/24 09:53:14;;;;;;;4.35;3.95;;;;;;;;;;5042000;28;20201;-64
2022/05/24 09:55:50;;;;;;;4.93;3.85;;;;;;;;;;5040445;28;20609;-64
2022/05/24 09:58:30;;;;;;;5.72;4.35;;;;;;;;;;5031160;28;20256;-66
2022/05/24 10:01:11;;;;;;;7.05;4.38;;;;;;;;;;5033147;28;20193;-67
2022/05/24 10:03:45;;;;;;;6.68;4.22;;;;;;;;;;5040615;28;20189;-66
2022/05/24 10:06:24;;;;;;;4.55;3.88;;;;;;;;;;5039232;28;20240;-68
2022/05/24 10:08:56;;;;;;;7.25;4.25;;;;;;;;;;5041764;28;20202;-66
2022/05/24 10:11:38;;;;;;;3.35;2.95;;;;;;;;;;5036109;28;20236;-66
2022/05/24 10:14:28;;;;;;;4.85;3.60;;;;;;;;;;5029189;28;20178;-67
2022/05/24 10:17:20;;;;;;;3.75;2.13;;;;;;;;;;5038125;28;20178;-66
2022/05/24 10:19:59;;;;;;;2.65;2.13;;;;;;;;;;5036739;28;20213;-65
2022/05/24 10:22:36;;;;;;;3.10;2.42;;;;;;;;;;5033625;28;20657;-65
2022/05/24 10:25:13;;;;;;;7.97;3.03;;;;;;;;;;5028977;28;20190;-65
2022/05/24 10:27:53;;;;;;;4.60;2.25;;;;;;;;;;5034894;28;20180;-66
2022/05/24 10:30:29;;;;;;;3.58;2.42;;;;;;;;;;5040672;28;20181;-65
2022/05/24 10:39:12;;;;;;;5.00;3.67;;;;;;;;;;5035041;28;20611;-65
2022/05/24 10:41:46;;;;;;;4.25;3.78;;;;;;;;;;5036865;28;20213;-66
2022/05/24 10:44:15;;;;;;;6.57;3.65;;;;;;;;;;5035768;28;20556;-64
2022/05/24 10:46:45;;;;;;;7.53;4.60;;;;;;;;;;5031549;28;20272;-67
2022/05/24 10:49:44;;;;;;;4.97;4.50;;;;;;;;;;5038448;28;20378;-65
2022/05/24 10:52:24;;;;;;;5.68;4.90;;;;;;;;;;5034409;28;20260;-64
2022/05/24 10:55:03;;;;;;;6.28;5.68;;;;;;;;;;5028737;28;20695;-66
2022/05/24 10:57:33;;;;;;;8.05;6.15;;;;;;;;;;5037836;28;20263;-66
2022/05/24 11:00:15;;;;;;;6.07;5.38;;;;;;;;;;5034867;28;20184;-66
2022/05/24 11:02:49;;;;;;;10.15;4.53;;;;;;;;;;5038033;28;20189;-68
2022/05/24 11:05:25;;;;;;;6.40;4.72;;;;;;;;;;5041215;28;20177;-69
2022/05/24 11:08:15;;;;;;;7.45;4.85;;;;;;;;;;5041111;28;20240;-72
2022/05/24 11:10:44;;;;;;;4.03;3.63;;;;;;;;;;5030176;28;20197;-67
2022/05/24 11:13:12;;;;;;;3.33;2.97;;;;;;;;;;5037327;28;20208;-70
2022/05/24 11:15:45;;;;;;;3.08;2.38;;;;;;;;;;5041926;28;20680;-69
2022/05/24 11:18:15;;;;;;;4.32;2.00;;;;;;;;;;5029402;28;20650;-69
2022/05/24 11:20:48;;;;;;;1.60;1.50;;;;;;;;;;5045863;28;20199;-67
2022/05/24 11:23:22;;;;;;;2.42;1.88;;;;;;;;;;5033469;28;20212;-68
2022/05/24 11:25:54;;;;;;;4.25;2.05;;;;;;;;;;5038398;28;20170;-67
2022/05/24 11:28:30;;;;;;;3.30;2.35;;;;;;;;;;5031551;28;20247;-65
2022/05/24 11:31:21;;;;;;;3.92;2.92;;;;;;;;;;5032031;28;20196;-65
2022/05/24 11:33:48;;;;;;;3.78;3.45;;;;;;;;;;5034184;28;20772;-65
2022/05/24 11:36:35;;;;;;;3.83;3.40;;;;;;;;;;5042962;28;20208;-65
2022/05/24 11:39:14;;;;;;;3.13;2.83;;;;;;;;;;5038432;28;20600;-65
2022/05/24 11:41:39;;;;;;;5.57;3.28;;;;;;;;;;5037668;28;20181;-66
2022/05/24 11:44:28;;;;;;;4.32;3.10;;;;;;;;;;5039441;28;20189;-65
2022/05/24 11:46:53;;;;;;;4.38;3.00;;;;;;;;;;5034664;28;20228;-66
2022/05/24 11:49:18;;;;;;;3.25;2.58;;;;;;;;;;5037118;28;20700;-66
2022/05/24 11:51:46;;;;;;;4.25;2.85;;;;;;;;;;5037573;28;20182;-66
2022/05/24 11:54:23;;;;;;;2.17;1.92;;;;;;;;;;5038318;28;20185;-65
2022/05/24 11:57:01;;;;;;;2.50;1.77;;;;;;;;;;5034586;28;20269;-64
2022/05/24 11:59:43;;;;;;;1.45;1.30;;;;;;;;;;5034988;28;20673;-66
2022/05/24 12:02:21;;;;;;;1.30;0.60;;;;;;;;;;5036591;28;20703;-65
2022/05/24 12:08:22;;;;;;;2.70;0.80;;;;;;;;;;5037934;28;20204;-66
2022/05/24 12:10:53;;;;;;;1.50;1.10;;;;;;;;;;5036176;28;20190;-68
2022/05/24 12:13:31;;;;;;;2.47;1.20;;;;;;;;;;5035900;28;20173;-69
2022/05/24 12:16:01;;;;;;;1.90;1.00;;;;;;;;;;5031078;28;20189;-68
2022/05/24 12:18:56;;;;;;;3.55;1.48;;;;;;;;;;5035978;28;20547;-67
2022/05/24 12:21:56;;;;;;;1.85;1.30;;;;;;;;;;5027647;28;20182;-68
2022/05/24 12:24:40;;;;;;;3.50;1.52;;;;;;;;;;5042922;28;20840;-67
2022/05/24 12:27:17;;;;;;;1.08;0.93;;;;;;;;;;5034234;28;20185;-67
2022/05/24 12:29:48;;;;;;;1.45;1.00;;;;;;;;;;5041627;28;20219;-68
2022/05/24 12:32:16;;;;;;;1.27;1.00;;;;;;;;;;5030143;28;20217;-68
2022/05/24 12:34:42;;;;;;;1.45;0.90;;;;;;;;;;5045431;28;20789;-66
2022/05/24 12:37:21;;;;;;;3.80;1.27;;;;;;;;;;5043835;28;20914;-66
2022/05/24 12:40:07;;;;;;;1.75;0.98;;;;;;;;;;5042947;28;20564;-65
2022/05/24 12:42:33;;;;;;;0.93;0.80;;;;;;;;;;5044623;28;20652;-65
2022/05/24 12:45:05;;;;;;;0.70;0.70;;;;;;;;;;5032900;28;20205;-66
2022/05/24 12:47:31;;;;;;;1.75;0.73;;;;;;;;;;5028768;28;20204;-68
2022/05/24 12:49:58;;;;;;;2.05;0.90;;;;;;;;;;5028962;28;20205;-66
2022/05/24 12:52:27;;;;;;;5.10;0.90;;;;;;;;;;5043911;28;20266;-66
2022/05/24 12:54:56;;;;;;;0.75;0.63;;;;;;;;;;5038866;28;20587;-66
2022/05/24 12:57:37;;;;;;;2.25;0.80;;;;;;;;;;5038093;28;20288;-65
2022/05/24 13:00:08;;;;;;;2.53;1.00;;;;;;;;;;5038153;28;20170;-66
2022/05/24 13:02:44;;;;;;;4.43;0.80;;;;;;;;;;5035253;28;20536;-66
2022/05/24 13:05:15;;;;;;;4.45;1.38;;;;;;;;;;5034264;28;20587;-66
2022/05/24 13:07:59;;;;;;;0.77;0.75;;;;;;;;;;5034445;28;20193;-65
2022/05/24 13:10:28;;;;;;;1.73;0.80;;;;;;;;;;5038810;28;20577;-67
2022/05/24 13:13:02;;;;;;;1.80;1.05;;;;;;;;;;5039863;28;20253;-67
2022/05/24 13:15:53;;;;;;;0.82;0.70;;;;;;;;;;5038810;28;20194;-69
2022/05/24 13:18:25;;;;;;;2.28;0.80;;;;;;;;;;5038262;28;20174;-65
2022/05/24 13:20:53;;;;;;;1.10;1.00;;;;;;;;;;5038741;28;20189;-66
2022/05/24 13:23:29;;;;;;;1.10;0.95;;;;;;;;;;5039677;28;20240;-66
2022/05/24 13:25:57;;;;;;;3.30;0.95;;;;;;;;;;5039682;28;20192;-65
2022/05/24 13:28:44;;;;;;;1.10;0.93;;;;;;;;;;5037127;28;20204;-67
2022/05/24 13:34:19;;;;;;;1.85;1.20;;;;;;;;;;5040986;28;20293;-66
2022/05/24 13:36:53;;;;;;;0.88;0.77;;;;;;;;;;5049613;28;20192;-65
2022/05/24 13:39:23;;;;;;;3.70;1.35;;;;;;;;;;5042638;28;20641;-67
2022/05/24 13:41:59;;;;;;;1.58;1.13;;;;;;;;;;5043089;28;20201;-65
2022/05/24 13:44:46;;;;;;;1.88;1.00;;;;;;;;;;5038584;28;20645;-65
2022/05/24 13:47:36;;;;;;;1.85;1.10;;;;;;;;;;5014058;28;20202;-65
2022/05/24 13:50:41;;;;;;;0.90;0.82;;;;;;;;;;5035659;28;20266;-66
2022/05/24 13:53:25;;;;;;;1.42;1.00;;;;;;;;;;4995426;28;20806;-66
2022/05/24 13:56:00;;;;;;;2.50;1.33;;;;;;;;;;4998288;28;20187;-66
2022/05/24 13:58:49;;;;;;;2.33;1.30;;;;;;;;;;5022018;28;20231;-66
2022/05/24 14:01:34;;;;;;;2.03;1.35;;;;;;;;;;5035035;28;20202;-67
2022/05/24 14:04:01;;;;;;;3.47;1.38;;;;;;;;;;5033468;28;20193;-68
2022/05/24 14:06:28;;;;;;;1.98;1.50;;;;;;;;;;5038025;28;20227;-67
2022/05/24 14:08:56;;;;;;;4.78;1.30;;;;;;;;;;5039386;28;20385;-65
2022/05/24 14:11:28;;;;;;;1.67;1.30;;;;;;;;;;5039952;28;20652;-66
2022/05/24 14:13:53;;;;;;;4.40;1.52;;;;;;;;;;5039635;28;20232;-67
2022/05/24 14:16:21;;;;;;;2.90;1.00;;;;;;;;;;5038492;28;20622;-67
2022/05/24 14:18:46;;;;;;;1.08;0.93;;;;;;;;;;5033949;28;20291;-66
2022/05/24 14:21:14;;;;;;;2.35;1.27;;;;;;;;;;5040607;28;20260;-66
2022/05/24 14:23:39;;;;;;;1.95;0.80;;;;;;;;;;5039528;28;20213;-65
2022/05/24 14:26:06;;;;;;;1.13;0.90;;;;;;;;;;5032089;28;20166;-66
2022/05/24 14:28:33;;;;;;;2.88;0.80;;;;;;;;;;5030384;28;20771;-66
2022/05/24 14:30:58;;;;;;;2.72;0.90;;;;;;;;;;5037911;28;20224;-68
2022/05/24 14:33:24;;;;;;;2.42;0.55;;;;;;;;;;5043351;28;20581;-66
2022/05/24 14:35:50;;;;;;;1.83;0.90;;;;;;;;;;5035617;28;20280;-66
2022/05/24 14:38:16;;;;;;;0.55;0.38;;;;;;;;;;5035596;28;20201;-66
2022/05/24 14:40:42;;;;;;;3.13;0.50;;;;;;;;;;5033319;28;20208;-68
2022/05/24 14:43:10;;;;;;;2.50;0.90;;;;;;;;;;5034862;28;20213;-67
2022/05/24 14:45:36;;;;;;;1.00;0.50;;;;;;;;;;5034196;28;20178;-65
2022/05/24 14:48:02;;;;;;;2.25;0.60;;;;;;;;;;5031117;28;20233;-67
2022/05/24 14:50:28;;;;;;;2.10;0.60;;;;;;;;;;5034677;28;20189;-66
2022/05/24 14:52:54;;;;;;;2.40;0.70;;;;;;;;;;5035291;28;20210;-67
2022/05/24 14:55:24;;;;;;;1.83;0.70;;;;;;;;;;5034915;28;20181;-66
2022/05/24 14:57:49;;;;;;;3.25;0.70;;;;;;;;;;5036397;28;20622;-67
2022/05/24 15:00:16;;;;;;;0.95;0.60;;;;;;;;;;5037025;28;20205;-66
2022/05/24 15:02:43;;;;;;;2.95;0.88;;;;;;;;;;5037622;28;20545;-67
2022/05/24 15:05:09;;;;;;;1.90;0.63;;;;;;;;;;5032130;28;20178;-66
2022/05/24 15:15:48;;;;;;;2.03;1.00;;;;;;;;;;5031768;28;20718;-66
2022/05/24 15:18:14;;;;;;;3.70;1.02;;;;;;;;;;5037299;28;20178;-66
2022/05/24 15:20:41;;;;;;;3.83;1.40;;;;;;;;;;5037736;28;20500;-67
2022/05/24 15:23:13;;;;;;;1.88;1.13;;;;;;;;;;5033744;28;20587;-67
2022/05/24 15:25:52;;;;;;;2.95;1.27;;;;;;;;;;5032208;28;20186;-67
2022/05/24 15:28:21;;;;;;;2.22;1.27;;;;;;;;;;5033347;28;21442;-66
2022/05/24 15:30:46;;;;;;;4.82;0.90;;;;;;;;;;5031270;28;20209;-67
2022/05/24 15:33:13;;;;;;;4.15;1.33;;;;;;;;;;5033103;28;20188;-68
2022/05/24 15:35:39;;;;;;;2.35;1.20;;;;;;;;;;5040173;28;20264;-65
2022/05/24 15:38:05;;;;;;;4.97;1.58;;;;;;;;;;5030239;28;20239;-66
2022/05/24 15:40:30;;;;;;;2.05;1.30;;;;;;;;;;5036430;28;20185;-65
2022/05/24 15:42:57;;;;;;;2.40;1.00;;;;;;;;;;5033350;28;20626;-66
2022/05/24 15:45:23;;;;;;;1.60;1.20;;;;;;;;;;5031709;28;20614;-66
2022/05/24 15:47:48;;;;;;;2.00;0.85;;;;;;;;;;5030943;28;20186;-65